createdAt,value
2022-11-26T00:01:44.047Z,9.69
2022-11-26T00:04:15.514Z,10.48
2022-11-26T00:06:46.551Z,11.20
2022-11-26T00:09:20.705Z,11.75
2022-11-26T00:11:51.523Z,12.10
2022-11-26T00:14:22.142Z,12.37
2022-11-26T00:16:53.183Z,12.50
2022-11-26T00:19:23.859Z,11.12
2022-11-26T00:21:54.748Z,10.01
2022-11-26T00:24:27.790Z,10.56
2022-11-26T00:26:59.284Z,11.32
2022-11-26T00:29:30.012Z,11.83
2022-11-26T00:32:00.803Z,12.16
2022-11-26T00:34:31.441Z,12.38
2022-11-26T00:37:02.747Z,12.48
2022-11-26T00:39:33.358Z,12.32
2022-11-26T00:42:06.223Z,11.04
2022-11-26T00:44:37.154Z,9.97
2022-11-26T00:47:10.040Z,10.54
2022-11-26T00:49:40.792Z,11.30
2022-11-26T00:52:22.135Z,11.64
2022-11-26T00:54:52.905Z,11.95
2022-11-26T00:57:23.822Z,12.19
2022-11-26T00:59:54.370Z,12.46
2022-11-26T01:02:25.248Z,12.40
2022-11-26T01:04:56.414Z,11.25
2022-11-26T01:07:27.447Z,10.37
2022-11-26T01:09:58.020Z,10.68
2022-11-26T01:12:30.865Z,11.12
2022-11-26T01:15:01.433Z,11.45
2022-11-26T01:17:32.159Z,11.65
2022-11-26T01:20:02.800Z,12.03
2022-11-26T01:22:33.636Z,10.94
2022-11-26T01:25:04.333Z,9.75
2022-11-26T01:27:35.202Z,10.61
2022-11-26T01:30:12.031Z,11.23
2022-11-26T01:32:43.118Z,11.08
2022-11-26T01:35:14.111Z,11.32
2022-11-26T01:37:45.357Z,11.31
2022-11-26T01:40:31.138Z,11.63
2022-11-26T01:43:05.416Z,11.92
2022-11-26T01:45:37.532Z,11.72
2022-11-26T01:48:17.944Z,10.20
2022-11-26T01:50:59.573Z,10.14
2022-11-26T01:53:35.236Z,10.91
2022-11-26T01:56:08.189Z,11.37
2022-11-26T01:58:41.551Z,11.70
2022-11-26T02:01:10.890Z,11.97
2022-11-26T02:03:45.062Z,11.46
2022-11-26T02:06:19.178Z,10.17
2022-11-26T02:08:50.111Z,10.54
2022-11-26T02:11:22.736Z,11.14
2022-11-26T02:13:55.392Z,11.43
2022-11-26T02:16:41.042Z,11.79
2022-11-26T02:19:19.159Z,12.07
2022-11-26T02:21:53.885Z,11.02
2022-11-26T02:24:36.436Z,9.63
2022-11-26T02:27:25.152Z,10.51
2022-11-26T02:30:04.383Z,11.05
2022-11-26T02:32:40.131Z,11.94
2022-11-26T02:35:14.199Z,10.52
2022-11-26T02:37:47.643Z,9.81
2022-11-26T02:40:16.629Z,10.44
2022-11-26T02:42:47.319Z,10.98
2022-11-26T02:45:19.433Z,11.50
2022-11-26T02:47:51.643Z,11.75
2022-11-26T02:50:25.499Z,10.76
2022-11-26T02:52:57.256Z,9.76
2022-11-26T02:55:30.365Z,10.55
2022-11-26T02:58:01.491Z,11.21
2022-11-26T03:00:32.672Z,11.53
2022-11-26T03:03:05.181Z,11.76
2022-11-26T03:05:38.578Z,10.84
2022-11-26T03:08:09.299Z,9.71
2022-11-26T03:10:40.313Z,10.23
2022-11-26T03:13:11.094Z,10.90
2022-11-26T03:15:41.841Z,11.02
2022-11-26T03:18:12.477Z,11.40
2022-11-26T03:20:42.979Z,11.76
2022-11-26T03:23:13.636Z,11.00
2022-11-26T03:25:44.274Z,9.59
2022-11-26T03:28:15.101Z,9.75
2022-11-26T03:30:50.484Z,10.17
2022-11-26T03:33:21.365Z,10.67
2022-11-26T03:35:52.062Z,10.74
2022-11-26T03:38:22.849Z,10.72
2022-11-26T03:40:58.571Z,11.03
2022-11-26T03:43:36.813Z,11.28
2022-11-26T03:46:07.762Z,11.55
2022-11-26T03:48:38.838Z,11.59
2022-11-26T03:51:09.639Z,10.02
2022-11-26T03:53:40.603Z,9.20
2022-11-26T03:56:11.395Z,9.87
2022-11-26T03:58:42.126Z,10.79
2022-11-26T04:01:13.989Z,11.00
2022-11-26T04:03:44.827Z,11.15
2022-11-26T04:06:16.652Z,11.32
2022-11-26T04:08:47.718Z,11.45
2022-11-26T04:11:18.457Z,11.55
2022-11-26T04:13:49.251Z,11.71
2022-11-26T04:16:20.961Z,11.68
2022-11-26T04:18:51.595Z,10.31
2022-11-26T04:21:22.005Z,8.95
2022-11-26T04:23:52.755Z,8.56
2022-11-26T04:26:23.421Z,9.55
2022-11-26T04:28:54.100Z,10.32
2022-11-26T04:31:24.878Z,10.67
2022-11-26T04:33:55.655Z,11.22
2022-11-26T04:36:26.266Z,11.53
2022-11-26T04:38:58.226Z,10.78
2022-11-26T04:41:29.093Z,9.40
2022-11-26T04:43:59.828Z,9.81
2022-11-26T04:46:30.397Z,10.58
2022-11-26T04:49:01.096Z,11.06
2022-11-26T04:51:31.641Z,10.98
2022-11-26T04:54:03.441Z,11.39
2022-11-26T04:56:35.334Z,10.67
2022-11-26T04:59:06.011Z,9.39
2022-11-26T05:01:36.992Z,9.60
2022-11-26T05:04:08.438Z,10.41
2022-11-26T05:06:39.187Z,10.66
2022-11-26T05:09:09.887Z,10.51
2022-11-26T05:11:40.661Z,10.75
2022-11-26T05:14:11.396Z,11.06
2022-11-26T05:16:42.190Z,10.62
2022-11-26T05:19:12.935Z,9.03
2022-11-26T05:21:44.351Z,9.19
2022-11-26T05:24:15.041Z,9.85
2022-11-26T05:26:45.565Z,10.45
2022-11-26T05:29:16.450Z,10.65
2022-11-26T05:31:47.081Z,10.49
2022-11-26T05:34:18.064Z,10.40
2022-11-26T05:36:48.749Z,10.51
2022-11-26T05:39:19.846Z,10.69
2022-11-26T05:41:50.955Z,11.28
2022-11-26T05:44:21.720Z,10.15
2022-11-26T05:46:52.250Z,9.01
2022-11-26T05:49:22.987Z,9.57
2022-11-26T05:51:53.629Z,9.93
2022-11-26T05:54:25.060Z,10.14
2022-11-26T05:57:00.075Z,10.45
2022-11-26T05:59:31.348Z,10.44
2022-11-26T06:02:02.215Z,10.39
2022-11-26T06:04:33.290Z,10.46
2022-11-26T06:07:04.875Z,10.57
2022-11-26T06:09:36.099Z,10.79
2022-11-26T06:12:07.480Z,10.40
2022-11-26T06:14:42.951Z,9.03
2022-11-26T06:17:14.261Z,8.19
2022-11-26T06:19:44.979Z,8.99
2022-11-26T06:22:15.829Z,9.87
2022-11-26T06:24:46.677Z,10.46
2022-11-26T06:27:17.293Z,10.86
2022-11-26T06:29:48.232Z,10.81
2022-11-26T06:32:18.826Z,9.62
2022-11-26T06:34:53.803Z,8.47
2022-11-26T06:37:27.086Z,8.03
2022-11-26T06:39:58.080Z,9.03
2022-11-26T06:42:29.990Z,9.89
2022-11-26T06:45:00.889Z,10.32
2022-11-26T06:47:31.560Z,10.65
2022-11-26T06:50:05.201Z,10.61
2022-11-26T06:52:40.460Z,9.39
2022-11-26T06:55:11.607Z,8.21
2022-11-26T06:57:42.265Z,7.99
2022-11-26T07:00:14.765Z,9.01
2022-11-26T07:02:45.689Z,9.61
2022-11-26T07:05:16.636Z,10.08
2022-11-26T07:07:47.498Z,10.57
2022-11-26T07:10:18.341Z,11.03
2022-11-26T07:12:49.022Z,9.99
2022-11-26T07:15:20.265Z,8.96
2022-11-26T07:17:51.045Z,9.83
2022-11-26T07:20:22.043Z,9.95
2022-11-26T07:22:52.739Z,8.93
2022-11-26T07:25:24.180Z,9.30
2022-11-26T07:27:54.690Z,10.00
2022-11-26T07:30:25.497Z,10.46
2022-11-26T07:32:56.120Z,10.62
2022-11-26T07:35:26.847Z,10.79
2022-11-26T07:37:58.144Z,9.36
2022-11-26T07:40:28.963Z,8.83
2022-11-26T07:43:00.802Z,9.46
2022-11-26T07:45:36.995Z,10.07
2022-11-26T07:48:11.542Z,10.84
2022-11-26T07:50:46.469Z,10.96
2022-11-26T07:53:19.801Z,11.27
2022-11-26T07:55:50.693Z,10.63
2022-11-26T07:58:21.412Z,9.94
2022-11-26T08:00:54.780Z,10.56
2022-11-26T08:03:25.805Z,10.79
2022-11-26T08:05:56.817Z,11.45
2022-11-26T08:08:27.468Z,10.72
2022-11-26T08:10:58.380Z,9.85
2022-11-26T08:13:29.345Z,10.73
2022-11-26T08:16:00.485Z,11.29
2022-11-26T08:18:31.219Z,11.24
2022-11-26T08:21:02.309Z,10.11
2022-11-26T08:23:33.302Z,10.51
2022-11-26T08:26:27.932Z,11.47
2022-11-26T08:28:58.830Z,10.47
2022-11-26T08:31:29.617Z,10.13
2022-11-26T08:34:00.842Z,11.18
2022-11-26T08:36:32.953Z,11.52
2022-11-26T08:39:03.505Z,10.22
2022-11-26T08:41:34.237Z,10.33
2022-11-26T08:44:06.564Z,11.11
2022-11-26T08:46:39.427Z,11.57
2022-11-26T08:49:12.651Z,11.68
2022-11-26T08:51:43.730Z,10.11
2022-11-26T08:54:14.254Z,10.59
2022-11-26T08:56:45.303Z,11.27
2022-11-26T08:59:16.822Z,11.69
2022-11-26T09:01:47.729Z,10.28
2022-11-26T09:04:18.720Z,10.56
2022-11-26T09:06:49.564Z,11.47
2022-11-26T09:09:21.010Z,11.87
2022-11-26T09:11:54.312Z,10.61
2022-11-26T09:14:26.314Z,10.85
2022-11-26T09:16:57.891Z,11.16
2022-11-26T09:19:28.831Z,12.10
2022-11-26T09:21:59.689Z,11.74
2022-11-26T09:24:30.938Z,10.64
2022-11-26T09:27:07.826Z,11.29
2022-11-26T09:29:39.372Z,11.43
2022-11-26T09:32:29.640Z,11.95
2022-11-26T09:35:01.105Z,12.58
2022-11-26T09:37:32.190Z,11.14
2022-11-26T09:40:02.981Z,11.06
2022-11-26T09:42:40.515Z,11.66
2022-11-26T09:45:18.600Z,12.45
2022-11-26T09:47:53.405Z,10.93
2022-11-26T09:50:27.721Z,11.15
2022-11-26T09:53:00.506Z,11.94
2022-11-26T09:55:32.136Z,11.47
2022-11-26T09:58:07.767Z,12.52
2022-11-26T10:00:39.536Z,10.90
2022-11-26T10:03:14.111Z,11.21
2022-11-26T10:05:51.274Z,12.13
2022-11-26T10:08:38.748Z,12.01
2022-11-26T10:11:11.912Z,10.93
2022-11-26T10:13:45.141Z,11.53
2022-11-26T10:16:25.828Z,12.74
2022-11-26T10:19:00.023Z,11.47
2022-11-26T10:21:57.514Z,11.66
2022-11-26T10:24:22.884Z,12.00
2022-11-26T10:26:54.283Z,12.61
2022-11-26T10:29:25.891Z,11.28
2022-11-26T10:31:58.983Z,11.56
2022-11-26T10:34:38.647Z,12.15
2022-11-26T10:37:10.371Z,12.37
2022-11-26T10:39:41.053Z,12.67
2022-11-26T10:42:14.712Z,11.37
2022-11-26T10:44:45.248Z,11.52
2022-11-26T10:47:26.915Z,11.96
2022-11-26T10:50:39.597Z,12.79
2022-11-26T10:53:07.473Z,12.80
2022-11-26T10:55:40.338Z,12.48
2022-11-26T10:58:16.291Z,11.26
2022-11-26T11:00:54.743Z,12.30
2022-11-26T11:03:44.952Z,12.99
2022-11-26T11:06:29.215Z,11.73
2022-11-26T11:09:00.031Z,11.56
2022-11-26T11:11:32.115Z,12.41
2022-11-26T11:14:02.979Z,12.68
2022-11-26T11:16:39.157Z,13.26
2022-11-26T11:19:21.854Z,12.07
2022-11-26T11:21:52.701Z,11.40
2022-11-26T11:24:24.564Z,12.08
2022-11-26T11:26:57.237Z,12.89
2022-11-26T11:29:33.780Z,13.32
2022-11-26T11:32:05.384Z,12.00
2022-11-26T11:34:39.067Z,11.72
2022-11-26T11:37:15.338Z,12.69
2022-11-26T11:39:46.333Z,13.03
2022-11-26T11:42:22.270Z,13.17
2022-11-26T11:44:53.498Z,12.24
2022-11-26T11:47:31.315Z,11.91
2022-11-26T11:50:21.299Z,12.81
2022-11-26T11:53:00.613Z,13.54
2022-11-26T11:55:38.633Z,12.10
2022-11-26T11:58:29.980Z,12.00
2022-11-26T12:01:07.245Z,12.91
2022-11-26T12:03:53.449Z,13.31
2022-11-26T12:06:29.535Z,13.76
2022-11-26T12:09:04.443Z,12.31
2022-11-26T12:11:42.570Z,12.32
2022-11-26T12:14:16.639Z,13.03
2022-11-26T12:16:48.603Z,13.40
2022-11-26T12:19:21.730Z,13.50
2022-11-26T12:21:55.776Z,13.66
2022-11-26T12:24:30.428Z,13.67
2022-11-26T12:27:04.989Z,12.00
2022-11-26T12:29:39.206Z,12.17
2022-11-26T12:32:14.441Z,12.94
2022-11-26T12:34:47.838Z,13.43
2022-11-26T12:37:17.142Z,13.79
2022-11-26T12:39:53.822Z,12.59
2022-11-26T12:42:27.617Z,12.92
2022-11-26T12:45:05.562Z,13.38
2022-11-26T12:47:39.884Z,13.92
2022-11-26T12:50:16.709Z,13.77
2022-11-26T12:52:54.476Z,12.06
2022-11-26T12:55:28.156Z,12.36
2022-11-26T12:58:00.558Z,12.87
2022-11-26T13:00:35.896Z,12.90
2022-11-26T13:03:08.099Z,13.01
2022-11-26T13:05:48.592Z,13.29
2022-11-26T13:08:28.589Z,13.88
2022-11-26T13:11:10.568Z,13.85
2022-11-26T13:13:44.505Z,12.99
2022-11-26T13:16:20.174Z,11.90
2022-11-26T13:18:52.087Z,12.44
2022-11-26T13:21:41.481Z,13.17
2022-11-26T13:24:23.176Z,13.89
2022-11-26T13:27:02.919Z,12.38
2022-11-26T13:29:42.836Z,12.21
2022-11-26T13:32:26.305Z,13.19
2022-11-26T13:35:08.221Z,13.76
2022-11-26T13:37:52.390Z,13.79
2022-11-26T13:40:39.059Z,12.13
2022-11-26T13:43:25.980Z,12.11
2022-11-26T13:46:00.744Z,13.79
2022-11-26T13:48:34.971Z,12.92
2022-11-26T13:51:09.488Z,11.96
2022-11-26T13:53:42.743Z,12.44
2022-11-26T13:56:14.047Z,13.44
2022-11-26T13:58:46.647Z,13.42
2022-11-26T14:01:30.569Z,13.11
2022-11-26T14:04:01.430Z,13.05
2022-11-26T14:06:32.407Z,13.60
2022-11-26T14:09:03.424Z,13.74
2022-11-26T14:11:54.826Z,13.34
2022-11-26T14:14:48.032Z,14.13
2022-11-26T14:17:27.968Z,12.75
2022-11-26T14:20:02.991Z,12.48
2022-11-26T14:22:35.039Z,13.25
2022-11-26T14:25:06.620Z,13.71
2022-11-26T14:27:39.257Z,13.54
2022-11-26T14:30:26.502Z,13.42
2022-11-26T14:33:11.357Z,13.79
2022-11-26T14:35:42.492Z,13.85
2022-11-26T14:38:24.802Z,14.04
2022-11-26T14:40:59.877Z,12.33
2022-11-26T14:43:30.826Z,12.01
2022-11-26T14:46:02.375Z,13.07
2022-11-26T14:48:34.388Z,13.52
2022-11-26T14:51:08.357Z,13.78
2022-11-26T14:53:43.229Z,13.76
2022-11-26T14:56:14.271Z,13.24
2022-11-26T14:58:47.536Z,13.18
2022-11-26T15:01:22.011Z,13.81
2022-11-26T15:04:00.109Z,13.72
2022-11-26T15:06:35.040Z,12.98
2022-11-26T15:09:16.255Z,12.76
2022-11-26T15:11:48.898Z,13.44
2022-11-26T15:14:22.659Z,13.83
2022-11-26T15:16:56.546Z,13.43
2022-11-26T15:19:28.524Z,13.75
2022-11-26T15:21:59.420Z,14.07
2022-11-26T15:24:30.134Z,12.79
2022-11-26T15:27:00.836Z,12.24
2022-11-26T15:29:33.112Z,12.73
2022-11-26T15:32:03.897Z,13.04
2022-11-26T15:34:35.188Z,13.64
2022-11-26T15:37:06.472Z,13.59
2022-11-26T15:39:37.742Z,12.78
2022-11-26T15:42:25.107Z,13.54
2022-11-26T15:44:56.112Z,14.13
2022-11-26T15:47:28.260Z,12.94
2022-11-26T15:50:00.485Z,12.15
2022-11-26T15:52:33.159Z,13.02
2022-11-26T15:55:13.751Z,13.83
2022-11-26T15:57:45.333Z,13.40
2022-11-26T16:00:22.522Z,13.59
2022-11-26T16:02:53.339Z,13.44
2022-11-26T16:05:29.973Z,11.99
2022-11-26T16:08:02.050Z,12.50
2022-11-26T16:10:35.900Z,12.89
2022-11-26T16:13:19.972Z,12.86
2022-11-26T16:15:49.074Z,13.12
2022-11-26T16:18:21.241Z,13.28
2022-11-26T16:21:01.680Z,13.34
2022-11-26T16:23:32.437Z,13.86
2022-11-26T16:26:11.505Z,13.34
2022-11-26T16:28:42.120Z,12.22
2022-11-26T16:31:12.895Z,12.50
2022-11-26T16:33:43.812Z,13.12
2022-11-26T16:36:30.786Z,13.12
2022-11-26T16:39:01.410Z,13.13
2022-11-26T16:41:32.201Z,13.47
2022-11-26T16:44:03.183Z,13.78
2022-11-26T16:46:36.388Z,13.78
2022-11-26T16:49:05.569Z,13.68
2022-11-26T16:51:36.306Z,14.08
2022-11-26T16:54:07.197Z,13.37
2022-11-26T16:56:40.124Z,11.98
2022-11-26T16:59:16.440Z,12.44
2022-11-26T17:01:47.486Z,13.02
2022-11-26T17:04:19.284Z,13.08
2022-11-26T17:06:50.287Z,13.33
2022-11-26T17:09:21.280Z,13.41
2022-11-26T17:11:51.964Z,13.73
2022-11-26T17:14:22.838Z,13.85
2022-11-26T17:16:53.389Z,13.83
2022-11-26T17:19:24.603Z,13.80
2022-11-26T17:21:55.256Z,13.63
2022-11-26T17:24:31.265Z,13.63
2022-11-26T17:27:03.268Z,13.63
2022-11-26T17:29:37.096Z,13.72
2022-11-26T17:32:12.738Z,13.83
2022-11-26T17:34:43.552Z,13.83
2022-11-26T17:37:15.605Z,13.96
2022-11-26T17:39:46.519Z,13.83
2022-11-26T17:42:19.998Z,13.73
2022-11-26T17:44:51.811Z,13.82
2022-11-26T17:47:22.897Z,13.81
2022-11-26T17:49:54.312Z,13.84
2022-11-26T17:52:24.931Z,13.79
2022-11-26T17:54:55.758Z,13.76
2022-11-26T17:57:28.550Z,13.72
2022-11-26T17:59:59.424Z,13.71
2022-11-26T18:02:30.176Z,13.84
2022-11-26T18:05:00.847Z,12.81
2022-11-26T18:07:31.547Z,11.68
2022-11-26T18:10:02.513Z,12.07
2022-11-26T18:12:32.945Z,12.70
2022-11-26T18:15:05.260Z,13.17
2022-11-26T18:17:35.939Z,13.47
2022-11-26T18:20:08.553Z,13.58
2022-11-26T18:22:39.980Z,13.62
2022-11-26T18:25:11.219Z,13.81
2022-11-26T18:27:41.913Z,13.33
2022-11-26T18:30:13.910Z,11.99
2022-11-26T18:32:44.702Z,11.93
2022-11-26T18:35:16.156Z,12.71
2022-11-26T18:37:47.028Z,12.96
2022-11-26T18:40:18.387Z,13.27
2022-11-26T18:42:52.408Z,13.63
2022-11-26T18:45:23.485Z,12.80
2022-11-26T18:47:54.259Z,11.44
2022-11-26T18:50:25.055Z,11.82
2022-11-26T18:52:58.490Z,12.53
2022-11-26T18:55:29.424Z,12.79
2022-11-26T18:58:02.880Z,13.00
2022-11-26T19:00:36.730Z,12.84
2022-11-26T19:03:07.534Z,11.56
2022-11-26T19:05:39.137Z,11.05
2022-11-26T19:08:09.550Z,11.84
2022-11-26T19:10:40.488Z,12.51
2022-11-26T19:13:11.029Z,12.72
2022-11-26T19:15:43.130Z,12.78
2022-11-26T19:18:14.548Z,12.88
2022-11-26T19:20:53.076Z,12.99
2022-11-26T19:23:26.239Z,12.02
2022-11-26T19:25:57.241Z,10.88
2022-11-26T19:28:28.624Z,11.52
2022-11-26T19:31:00.749Z,12.23
2022-11-26T19:33:31.730Z,12.61
2022-11-26T19:36:05.877Z,12.68
2022-11-26T19:38:36.474Z,12.52
2022-11-26T19:41:07.911Z,11.16
2022-11-26T19:43:40.344Z,10.86
2022-11-26T19:46:12.824Z,11.57
2022-11-26T19:48:44.831Z,12.19
2022-11-26T19:51:16.135Z,12.66
2022-11-26T19:53:47.925Z,12.05
2022-11-26T19:56:19.804Z,10.61
2022-11-26T19:58:50.812Z,11.02
2022-11-26T20:01:22.423Z,11.74
2022-11-26T20:03:53.223Z,12.35
2022-11-26T20:06:26.538Z,11.67
2022-11-26T20:08:58.486Z,10.36
2022-11-26T20:11:30.282Z,10.81
2022-11-26T20:14:01.188Z,11.34
2022-11-26T20:16:33.335Z,12.36
2022-11-26T20:19:04.300Z,11.46
2022-11-26T20:21:38.444Z,10.26
2022-11-26T20:24:10.869Z,10.89
2022-11-26T20:26:43.402Z,11.63
2022-11-26T20:29:15.200Z,12.10
2022-11-26T20:31:47.254Z,11.90
2022-11-26T20:34:18.815Z,10.61
2022-11-26T20:36:51.461Z,10.69
2022-11-26T20:39:23.666Z,11.34
2022-11-26T20:41:54.705Z,11.98
2022-11-26T20:44:27.272Z,10.95
2022-11-26T20:46:58.218Z,9.99
2022-11-26T20:49:33.991Z,10.72
2022-11-26T20:52:06.668Z,11.37
2022-11-26T20:54:37.991Z,11.75
2022-11-26T20:57:08.783Z,11.67
2022-11-26T20:59:41.196Z,10.36
2022-11-26T21:02:15.809Z,9.58
2022-11-26T21:04:46.886Z,10.60
2022-11-26T21:07:17.771Z,11.41
2022-11-26T21:09:48.757Z,10.93
2022-11-26T21:12:19.468Z,9.50
2022-11-26T21:14:50.078Z,9.19
2022-11-26T21:17:21.999Z,10.24
2022-11-26T21:19:52.689Z,10.98
2022-11-26T21:22:23.787Z,11.40
2022-11-26T21:24:54.673Z,11.34
2022-11-26T21:27:25.513Z,10.03
2022-11-26T21:29:56.339Z,9.29
2022-11-26T21:32:27.027Z,10.08
2022-11-26T21:34:57.652Z,10.95
2022-11-26T21:37:29.572Z,10.51
2022-11-26T21:40:00.210Z,9.14
2022-11-26T21:42:31.450Z,8.96
2022-11-26T21:45:02.086Z,9.91
2022-11-26T21:47:33.221Z,10.58
2022-11-26T21:50:04.257Z,10.94
2022-11-26T21:52:35.105Z,10.75
2022-11-26T21:55:06.716Z,9.48
2022-11-26T21:57:37.883Z,8.75
2022-11-26T22:00:10.272Z,9.83
2022-11-26T22:02:41.354Z,10.88
2022-11-26T22:05:12.414Z,10.39
2022-11-26T22:07:43.422Z,9.24
2022-11-26T22:10:14.071Z,9.79
2022-11-26T22:12:46.381Z,10.76
2022-11-26T22:15:17.192Z,10.50
2022-11-26T22:17:47.860Z,8.80
2022-11-26T22:20:18.638Z,8.22
2022-11-26T22:22:49.723Z,9.15
2022-11-26T22:25:21.993Z,10.19
2022-11-26T22:27:52.993Z,10.48
2022-11-26T22:30:23.967Z,9.05
2022-11-26T22:32:54.899Z,8.20
2022-11-26T22:35:25.467Z,9.40
2022-11-26T22:37:56.743Z,10.32
2022-11-26T22:40:27.514Z,9.35
2022-11-26T22:42:58.989Z,8.32
2022-11-26T22:45:30.125Z,9.18
2022-11-26T22:48:01.150Z,10.10
2022-11-26T22:50:31.780Z,8.75
2022-11-26T22:53:02.390Z,7.83
2022-11-26T22:55:33.070Z,8.63
2022-11-26T22:58:04.015Z,9.74
2022-11-26T23:00:48.064Z,9.42
2022-11-26T23:03:19.761Z,8.14
2022-11-26T23:05:50.629Z,7.85
2022-11-26T23:08:22.109Z,8.88
2022-11-26T23:10:52.908Z,9.47
2022-11-26T23:13:24.281Z,8.37
2022-11-26T23:15:55.031Z,7.68
2022-11-26T23:18:26.175Z,8.83
2022-11-26T23:21:04.342Z,9.76
2022-11-26T23:23:35.683Z,8.93
2022-11-26T23:26:07.548Z,7.64
2022-11-26T23:28:39.187Z,7.51
2022-11-26T23:31:14.048Z,8.65
2022-11-26T23:33:44.909Z,9.58
2022-11-26T23:36:15.969Z,9.47
2022-11-26T23:38:46.845Z,8.25
2022-11-26T23:41:17.734Z,7.34
2022-11-26T23:43:48.571Z,7.96
2022-11-26T23:46:22.376Z,9.17
2022-11-26T23:48:53.649Z,9.43
2022-11-26T23:51:25.277Z,8.18
2022-11-26T23:53:56.919Z,7.40
2022-11-26T23:56:28.545Z,8.27
2022-11-26T23:59:01.681Z,9.27
